createdAt,value
2022-08-01T00:00:19.894Z,20.07
2022-08-01T00:02:47.737Z,20.07
2022-08-01T00:05:15.465Z,20.03
2022-08-01T00:07:44.679Z,20.01
2022-08-01T00:10:12.325Z,19.99
2022-08-01T00:12:40.070Z,19.97
2022-08-01T00:15:07.751Z,19.94
2022-08-01T00:17:36.871Z,19.92
2022-08-01T00:20:04.758Z,19.91
2022-08-01T00:22:32.451Z,19.90
2022-08-01T00:25:00.225Z,19.88
2022-08-01T00:27:28.288Z,19.86
2022-08-01T00:30:11.472Z,19.84
2022-08-01T00:32:41.859Z,19.80
2022-08-01T00:35:09.589Z,19.77
2022-08-01T00:37:37.697Z,19.75
2022-08-01T00:40:05.466Z,19.73
2022-08-01T00:42:33.134Z,19.73
2022-08-01T00:45:00.799Z,19.71
2022-08-01T00:47:28.893Z,19.71
2022-08-01T00:49:56.508Z,19.70
2022-08-01T00:52:24.256Z,19.71
2022-08-01T00:54:51.945Z,19.70
2022-08-01T00:58:02.167Z,19.71
2022-08-01T01:00:07.858Z,19.70
2022-08-01T01:02:35.992Z,19.69
2022-08-01T01:05:03.678Z,19.69
2022-08-01T01:07:31.907Z,19.70
2022-08-01T01:09:59.594Z,19.69
2022-08-01T01:12:27.304Z,19.68
2022-08-01T01:14:55.061Z,19.68
2022-08-01T01:17:50.231Z,19.69
2022-08-01T01:20:10.847Z,19.68
2022-08-01T01:22:39.113Z,19.67
2022-08-01T01:25:08.018Z,19.67
2022-08-01T01:27:35.804Z,19.68
2022-08-01T01:30:03.527Z,19.71
2022-08-01T01:32:34.573Z,19.74
2022-08-01T01:35:02.264Z,19.76
2022-08-01T01:37:31.018Z,19.77
2022-08-01T01:39:58.696Z,19.81
2022-08-01T01:42:26.386Z,19.82
2022-08-01T01:44:54.057Z,19.83
2022-08-01T01:47:22.103Z,19.85
2022-08-01T01:49:49.854Z,19.86
2022-08-01T01:52:17.527Z,19.86
2022-08-01T01:54:45.192Z,19.87
2022-08-01T01:57:13.359Z,19.84
2022-08-01T01:59:41.334Z,19.83
2022-08-01T02:02:09.094Z,19.82
2022-08-01T02:04:37.450Z,19.82
2022-08-01T02:07:05.396Z,19.83
2022-08-01T02:09:33.239Z,19.83
2022-08-01T02:12:08.088Z,19.84
2022-08-01T02:14:37.261Z,19.84
2022-08-01T02:17:05.998Z,19.85
2022-08-01T02:19:37.002Z,19.87
2022-08-01T02:22:06.282Z,19.87
2022-08-01T02:24:34.154Z,19.87
2022-08-01T02:27:03.356Z,19.87
2022-08-01T02:29:31.015Z,19.86
2022-08-01T02:31:58.797Z,19.86
2022-08-01T02:34:26.712Z,19.86
2022-08-01T02:36:55.791Z,19.86
2022-08-01T02:39:23.524Z,19.85
2022-08-01T02:41:51.246Z,19.84
2022-08-01T02:44:19.375Z,19.85
2022-08-01T02:46:48.612Z,19.85
2022-08-01T02:49:17.053Z,19.86
2022-08-01T02:51:44.792Z,19.86
2022-08-01T02:54:12.547Z,19.85
2022-08-01T02:56:41.967Z,19.86
2022-08-01T02:59:10.379Z,19.86
2022-08-01T03:01:41.992Z,19.87
2022-08-01T03:04:09.969Z,19.89
2022-08-01T03:06:38.032Z,19.87
2022-08-01T03:09:06.656Z,19.83
2022-08-01T03:11:34.294Z,19.79
2022-08-01T03:14:02.049Z,19.76
2022-08-01T03:16:30.130Z,19.75
2022-08-01T03:18:57.959Z,19.75
2022-08-01T03:21:25.666Z,19.74
2022-08-01T03:23:58.166Z,19.75
2022-08-01T03:26:26.518Z,19.76
2022-08-01T03:28:54.259Z,19.76
2022-08-01T03:31:22.107Z,19.75
2022-08-01T03:33:49.767Z,19.70
2022-08-01T03:36:17.810Z,19.67
2022-08-01T03:38:45.825Z,19.65
2022-08-01T03:41:13.441Z,19.63
2022-08-01T03:43:42.727Z,19.57
2022-08-01T03:46:10.383Z,19.52
2022-08-01T03:48:40.573Z,19.50
2022-08-01T03:51:08.624Z,19.47
2022-08-01T03:53:36.335Z,19.44
2022-08-01T03:56:09.797Z,19.44
2022-08-01T03:58:37.531Z,19.43
2022-08-01T04:01:05.346Z,19.40
2022-08-01T04:03:33.001Z,19.37
2022-08-01T04:06:11.680Z,19.34
2022-08-01T04:08:39.863Z,19.31
2022-08-01T04:11:08.741Z,19.28
2022-08-01T04:13:38.305Z,19.25
2022-08-01T04:16:06.321Z,19.24
2022-08-01T04:18:34.436Z,19.23
2022-08-01T04:21:02.137Z,19.24
2022-08-01T04:23:29.872Z,19.24
2022-08-01T04:25:57.645Z,19.26
2022-08-01T04:28:25.700Z,19.27
2022-08-01T04:30:53.366Z,19.29
2022-08-01T04:33:21.035Z,19.31
2022-08-01T04:36:03.244Z,19.34
2022-08-01T04:38:32.855Z,19.37
2022-08-01T04:41:08.599Z,19.39
2022-08-01T04:43:37.209Z,19.44
2022-08-01T04:46:05.944Z,19.47
2022-08-01T04:48:33.594Z,19.50
2022-08-01T04:51:01.459Z,19.53
2022-08-01T04:53:29.157Z,19.56
2022-08-01T04:55:57.840Z,19.60
2022-08-01T04:58:25.472Z,19.62
2022-08-01T05:00:53.256Z,19.66
2022-08-01T05:03:20.977Z,19.67
2022-08-01T05:05:48.660Z,19.71
2022-08-01T05:08:17.595Z,19.70
2022-08-01T05:10:45.280Z,19.74
2022-08-01T05:13:13.360Z,19.78
2022-08-01T05:15:41.227Z,19.82
2022-08-01T05:18:09.555Z,19.88
2022-08-01T05:20:38.141Z,19.93
2022-08-01T05:23:05.879Z,19.95
2022-08-01T05:25:56.833Z,20.00
2022-08-01T05:28:22.181Z,20.03
2022-08-01T05:30:49.940Z,20.06
2022-08-01T05:33:17.761Z,20.10
2022-08-01T05:35:49.057Z,20.14
2022-08-01T05:38:17.050Z,20.16
2022-08-01T05:40:44.773Z,20.18
2022-08-01T05:43:12.567Z,20.21
2022-08-01T05:45:40.295Z,20.23
2022-08-01T05:48:08.022Z,20.25
2022-08-01T05:50:35.660Z,20.30
2022-08-01T05:53:03.722Z,20.36
2022-08-01T05:55:31.404Z,20.42
2022-08-01T05:57:59.061Z,20.48
2022-08-01T06:00:27.006Z,20.51
2022-08-01T06:02:54.685Z,20.57
2022-08-01T06:05:22.360Z,20.61
2022-08-01T06:07:50.294Z,20.64
2022-08-01T06:10:17.994Z,20.65
2022-08-01T06:12:45.649Z,20.62
2022-08-01T06:15:13.331Z,20.61
2022-08-01T06:17:42.404Z,20.61
2022-08-01T06:20:10.127Z,20.61
2022-08-01T06:22:38.129Z,20.63
2022-08-01T06:25:05.865Z,20.65
2022-08-01T06:27:33.864Z,20.67
2022-08-01T06:30:01.632Z,20.71
2022-08-01T06:32:30.179Z,20.77
2022-08-01T06:34:57.944Z,20.81
2022-08-01T06:37:27.156Z,20.82
2022-08-01T06:39:55.008Z,20.82
2022-08-01T06:42:22.747Z,20.86
2022-08-01T06:44:50.514Z,20.95
2022-08-01T06:47:18.507Z,20.98
2022-08-01T06:49:46.327Z,21.09
2022-08-01T06:52:14.004Z,21.19
2022-08-01T06:54:41.901Z,21.26
2022-08-01T06:57:09.846Z,21.35
2022-08-01T06:59:37.611Z,21.45
2022-08-01T07:02:05.548Z,21.53
2022-08-01T07:04:33.532Z,21.62
2022-08-01T07:07:01.537Z,21.67
2022-08-01T07:09:29.292Z,21.64
2022-08-01T07:11:57.056Z,21.58
2022-08-01T07:14:24.890Z,21.55
2022-08-01T07:16:53.112Z,21.56
2022-08-01T07:19:20.984Z,21.60
2022-08-01T07:21:49.374Z,21.67
2022-08-01T07:24:19.533Z,21.73
2022-08-01T07:26:53.761Z,21.82
2022-08-01T07:29:22.250Z,21.92
2022-08-01T07:31:50.180Z,21.92
2022-08-01T07:34:17.884Z,21.91
2022-08-01T07:36:45.903Z,21.89
2022-08-01T07:39:13.621Z,21.90
2022-08-01T07:41:45.508Z,21.96
2022-08-01T07:44:29.181Z,22.02
2022-08-01T07:46:57.334Z,22.06
2022-08-01T07:49:25.138Z,22.09
2022-08-01T07:52:03.533Z,22.14
2022-08-01T07:54:33.328Z,22.24
2022-08-01T07:57:02.265Z,22.30
2022-08-01T07:59:30.006Z,22.32
2022-08-01T08:01:57.792Z,22.23
2022-08-01T08:04:25.613Z,22.21
2022-08-01T08:06:54.587Z,22.19
2022-08-01T08:09:22.331Z,22.12
2022-08-01T08:11:50.170Z,22.09
2022-08-01T08:14:18.189Z,22.02
2022-08-01T08:16:46.253Z,21.96
2022-08-01T08:19:14.057Z,21.90
2022-08-01T08:21:41.875Z,21.86
2022-08-01T08:24:26.182Z,21.82
2022-08-01T08:26:55.729Z,21.88
2022-08-01T08:29:23.491Z,22.05
2022-08-01T08:31:53.092Z,22.27
2022-08-01T08:34:20.942Z,22.56
2022-08-01T08:36:50.251Z,22.85
2022-08-01T08:39:19.819Z,23.16
2022-08-01T08:41:49.637Z,23.35
2022-08-01T08:44:18.017Z,23.43
2022-08-01T08:46:46.085Z,23.59
2022-08-01T08:49:13.860Z,23.64
2022-08-01T08:51:41.696Z,23.62
2022-08-01T08:54:09.974Z,23.56
2022-08-01T08:56:37.767Z,23.37
2022-08-01T08:59:05.576Z,23.19
2022-08-01T09:01:34.746Z,23.03
2022-08-01T09:04:02.780Z,22.92
2022-08-01T09:06:30.960Z,22.88
2022-08-01T09:08:58.733Z,22.90
2022-08-01T09:11:26.467Z,23.14
2022-08-01T09:13:54.513Z,23.44
2022-08-01T09:16:22.173Z,23.76
2022-08-01T09:18:53.687Z,23.99
2022-08-01T09:21:22.455Z,24.18
2022-08-01T09:23:54.142Z,24.18
2022-08-01T09:26:22.567Z,24.02
2022-08-01T09:28:52.308Z,23.76
2022-08-01T09:31:20.079Z,23.55
2022-08-01T09:33:47.742Z,23.38
2022-08-01T09:36:18.855Z,23.25
2022-08-01T09:38:47.890Z,23.15
2022-08-01T09:41:19.590Z,23.08
2022-08-01T09:43:47.356Z,23.09
2022-08-01T09:46:17.951Z,23.31
2022-08-01T09:48:49.354Z,23.52
2022-08-01T09:51:57.900Z,23.89
2022-08-01T09:54:05.929Z,24.40
2022-08-01T09:56:33.961Z,24.92
2022-08-01T09:59:02.770Z,25.38
2022-08-01T10:01:37.324Z,25.79
2022-08-01T10:04:06.447Z,26.31
2022-08-01T10:06:39.573Z,26.89
2022-08-01T10:09:08.756Z,27.21
2022-08-01T10:11:39.098Z,26.96
2022-08-01T10:14:06.999Z,26.82
2022-08-01T10:16:36.773Z,26.61
2022-08-01T10:19:06.074Z,26.47
2022-08-01T10:21:56.793Z,26.12
2022-08-01T10:24:26.798Z,25.75
2022-08-01T10:26:55.968Z,25.47
2022-08-01T10:29:46.483Z,25.27
2022-08-01T10:32:12.425Z,25.14
2022-08-01T10:34:40.539Z,25.32
2022-08-01T10:37:12.869Z,26.05
2022-08-01T10:39:41.717Z,27.05
2022-08-01T10:42:10.910Z,28.11
2022-08-01T10:44:43.538Z,28.79
2022-08-01T10:47:12.474Z,29.14
2022-08-01T10:49:40.541Z,29.48
2022-08-01T10:52:08.338Z,29.87
2022-08-01T10:54:36.215Z,29.88
2022-08-01T10:57:04.597Z,29.56
2022-08-01T10:59:50.061Z,29.25
2022-08-01T11:02:19.156Z,28.74
2022-08-01T11:04:46.994Z,28.21
2022-08-01T11:07:16.424Z,27.96
2022-08-01T11:09:47.102Z,27.82
2022-08-01T11:12:24.780Z,27.74
2022-08-01T11:14:55.933Z,27.86
2022-08-01T11:17:23.835Z,27.91
2022-08-01T11:19:51.948Z,28.49
2022-08-01T11:22:25.500Z,29.58
2022-08-01T11:24:57.885Z,30.40
2022-08-01T11:27:25.793Z,30.22
2022-08-01T11:29:54.307Z,29.32
2022-08-01T11:32:22.042Z,28.33
2022-08-01T11:34:50.167Z,27.56
2022-08-01T11:37:18.025Z,27.05
2022-08-01T11:39:45.843Z,27.19
2022-08-01T11:42:13.621Z,28.16
2022-08-01T11:44:41.361Z,28.82
2022-08-01T11:47:11.654Z,28.57
2022-08-01T11:49:43.901Z,28.02
2022-08-01T11:52:11.629Z,27.43
2022-08-01T11:54:39.371Z,26.97
2022-08-01T11:57:07.455Z,26.76
2022-08-01T11:59:38.219Z,27.03
2022-08-01T12:02:09.366Z,27.13
2022-08-01T12:04:37.175Z,27.23
2022-08-01T12:07:05.214Z,27.66
2022-08-01T12:09:33.111Z,28.42
2022-08-01T12:12:00.826Z,29.50
2022-08-01T12:14:28.507Z,30.43
2022-08-01T12:16:56.202Z,31.20
2022-08-01T12:19:24.138Z,31.74
2022-08-01T12:21:55.869Z,31.91
2022-08-01T12:24:23.789Z,31.21
2022-08-01T12:26:51.543Z,30.28
2022-08-01T12:29:19.297Z,29.49
2022-08-01T12:31:46.974Z,28.77
2022-08-01T12:34:14.744Z,28.24
2022-08-01T12:36:42.431Z,27.91
2022-08-01T12:39:10.158Z,28.01
2022-08-01T12:41:38.027Z,28.41
2022-08-01T12:44:05.843Z,28.94
2022-08-01T12:46:33.493Z,28.88
2022-08-01T12:49:01.595Z,28.92
2022-08-01T12:51:29.372Z,28.70
2022-08-01T12:53:57.143Z,28.60
2022-08-01T12:56:24.901Z,28.95
2022-08-01T12:58:54.942Z,28.88
2022-08-01T13:01:22.750Z,28.94
2022-08-01T13:03:50.557Z,29.00
2022-08-01T13:06:18.315Z,28.71
2022-08-01T13:08:46.303Z,28.84
2022-08-01T13:11:15.740Z,29.28
2022-08-01T13:13:44.071Z,29.71
2022-08-01T13:16:12.406Z,29.93
2022-08-01T13:18:45.083Z,30.26
2022-08-01T13:21:12.943Z,30.70
2022-08-01T13:24:03.687Z,30.90
2022-08-01T13:26:28.305Z,30.32
2022-08-01T13:28:57.000Z,29.58
2022-08-01T13:31:24.703Z,28.82
2022-08-01T13:33:54.173Z,28.27
2022-08-01T13:36:29.615Z,27.90
2022-08-01T13:39:15.334Z,27.63
2022-08-01T13:41:42.998Z,27.27
2022-08-01T13:44:11.758Z,26.95
2022-08-01T13:46:39.580Z,26.65
2022-08-01T13:49:17.742Z,26.48
2022-08-01T13:51:47.580Z,26.68
2022-08-01T13:54:15.327Z,27.12
2022-08-01T13:56:43.354Z,27.23
2022-08-01T13:59:11.006Z,27.04
2022-08-01T14:01:38.815Z,26.89
2022-08-01T14:04:06.558Z,26.84
2022-08-01T14:06:34.645Z,26.94
2022-08-01T14:09:02.474Z,27.20
2022-08-01T14:11:45.928Z,27.36
2022-08-01T14:14:13.868Z,27.62
2022-08-01T14:16:41.681Z,28.04
2022-08-01T14:19:10.635Z,28.55
2022-08-01T14:21:38.872Z,28.87
2022-08-01T14:24:07.842Z,28.72
2022-08-01T14:26:36.296Z,28.47
2022-08-01T14:29:04.312Z,28.39
2022-08-01T14:31:34.241Z,28.19
2022-08-01T14:34:02.610Z,28.20
2022-08-01T14:36:31.820Z,28.22
2022-08-01T14:39:06.201Z,28.00
2022-08-01T14:41:34.973Z,27.83
2022-08-01T14:44:02.757Z,28.00
2022-08-01T14:46:31.546Z,27.94
2022-08-01T14:49:02.037Z,27.65
2022-08-01T14:51:34.210Z,27.45
2022-08-01T14:54:02.008Z,27.50
2022-08-01T14:56:31.810Z,27.51
2022-08-01T14:58:59.961Z,27.72
2022-08-01T15:01:27.858Z,27.89
2022-08-01T15:03:56.979Z,27.94
2022-08-01T15:06:24.685Z,27.77
2022-08-01T15:08:52.615Z,27.43
2022-08-01T15:11:20.326Z,27.07
2022-08-01T15:14:08.028Z,26.73
2022-08-01T15:16:35.661Z,26.38
2022-08-01T15:19:03.877Z,26.12
2022-08-01T15:21:41.147Z,26.05
2022-08-01T15:24:10.346Z,26.14
2022-08-01T15:26:38.397Z,26.25
2022-08-01T15:29:06.128Z,26.32
2022-08-01T15:31:33.856Z,26.54
2022-08-01T15:34:01.938Z,26.74
2022-08-01T15:36:32.059Z,26.91
2022-08-01T15:38:59.836Z,26.97
2022-08-01T15:41:27.577Z,26.92
2022-08-01T15:43:56.272Z,26.76
2022-08-01T15:46:24.625Z,26.55
2022-08-01T15:48:52.386Z,26.36
2022-08-01T15:51:20.227Z,26.15
2022-08-01T15:53:48.112Z,25.98
2022-08-01T15:56:16.446Z,25.87
2022-08-01T15:58:44.164Z,25.82
2022-08-01T16:01:11.912Z,25.80
2022-08-01T16:03:39.781Z,25.87
2022-08-01T16:06:08.191Z,25.86
2022-08-01T16:08:35.905Z,25.80
2022-08-01T16:11:03.658Z,25.71
2022-08-01T16:13:31.403Z,25.58
2022-08-01T16:15:59.796Z,25.43
2022-08-01T16:18:27.487Z,25.41
2022-08-01T16:20:55.327Z,25.93
2022-08-01T16:23:23.008Z,26.78
2022-08-01T16:25:51.089Z,27.77
2022-08-01T16:28:18.811Z,28.56
2022-08-01T16:30:55.286Z,29.05
2022-08-01T16:33:47.525Z,28.99
2022-08-01T16:36:22.113Z,28.44
2022-08-01T16:38:52.492Z,27.76
2022-08-01T16:41:20.687Z,27.14
2022-08-01T16:43:54.182Z,26.64
2022-08-01T16:46:22.706Z,26.25
2022-08-01T16:48:50.524Z,25.97
2022-08-01T16:51:18.297Z,25.77
2022-08-01T16:53:46.044Z,25.59
2022-08-01T16:56:14.110Z,25.45
2022-08-01T16:58:41.813Z,25.33
2022-08-01T17:01:57.837Z,25.20
2022-08-01T17:04:01.187Z,25.08
2022-08-01T17:06:29.574Z,24.99
2022-08-01T17:08:57.321Z,24.86
2022-08-01T17:11:25.054Z,24.75
2022-08-01T17:13:52.870Z,24.68
2022-08-01T17:16:20.749Z,24.65
2022-08-01T17:18:48.975Z,24.62
2022-08-01T17:21:16.818Z,24.55
2022-08-01T17:23:44.550Z,24.49
2022-08-01T17:26:12.315Z,24.40
2022-08-01T17:28:40.055Z,24.33
2022-08-01T17:31:10.499Z,24.29
2022-08-01T17:33:45.743Z,24.27
2022-08-01T17:36:15.152Z,24.27
2022-08-01T17:38:42.965Z,24.28
2022-08-01T17:41:10.725Z,24.23
2022-08-01T17:43:38.547Z,24.14
2022-08-01T17:46:06.261Z,24.05
2022-08-01T17:48:34.307Z,23.98
2022-08-01T17:51:02.015Z,23.93
2022-08-01T17:53:29.802Z,23.87
2022-08-01T17:55:58.999Z,23.78
2022-08-01T18:08:00.558Z,23.45
2022-08-01T18:10:30.135Z,23.43
2022-08-01T18:12:57.818Z,23.41
2022-08-01T18:15:26.974Z,23.38
2022-08-01T18:17:55.150Z,23.34
2022-08-01T18:20:22.876Z,23.27
2022-08-01T18:22:50.605Z,23.21
2022-08-01T18:25:18.426Z,23.15
2022-08-01T18:28:22.349Z,23.10
2022-08-01T18:30:34.156Z,23.03
2022-08-01T18:33:01.871Z,22.94
2022-08-01T18:35:51.753Z,22.87
2022-08-01T18:38:17.569Z,22.78
2022-08-01T18:40:46.079Z,22.71
2022-08-01T18:43:13.875Z,22.63
2022-08-01T18:45:43.087Z,22.60
2022-08-01T18:48:11.425Z,22.60
2022-08-01T18:56:57.365Z,22.52
2022-08-01T18:59:25.774Z,22.47
2022-08-01T19:01:53.445Z,22.43
2022-08-01T19:04:21.240Z,22.37
2022-08-01T19:06:49.206Z,22.32
2022-08-01T19:09:20.585Z,22.28
2022-08-01T19:11:48.696Z,22.25
2022-08-01T19:14:16.501Z,22.22
2022-08-01T19:16:44.287Z,22.17
2022-08-01T19:19:12.247Z,22.10
2022-08-01T19:21:44.921Z,22.01
2022-08-01T19:24:23.237Z,21.93
2022-08-01T19:26:51.983Z,21.87
2022-08-01T19:29:19.658Z,21.82
2022-08-01T19:31:49.155Z,21.76
2022-08-01T19:34:17.403Z,21.72
2022-08-01T19:36:45.078Z,21.66
2022-08-01T19:39:15.420Z,21.59
2022-08-01T19:41:44.212Z,21.56
2022-08-01T19:44:11.969Z,21.54
2022-08-01T19:46:39.682Z,21.53
2022-08-01T19:49:07.794Z,21.51
2022-08-01T19:51:35.553Z,21.51
2022-08-01T19:54:03.393Z,21.49
2022-08-01T19:56:33.795Z,21.46
2022-08-01T19:59:01.910Z,21.43
2022-08-01T20:01:29.747Z,21.40
2022-08-01T20:03:57.536Z,21.36
2022-08-01T20:06:27.197Z,21.33
2022-08-01T20:08:55.211Z,21.30
2022-08-01T20:11:23.651Z,21.24
2022-08-01T20:13:51.603Z,21.17
2022-08-01T20:16:19.324Z,21.10
2022-08-01T20:18:47.513Z,21.04
2022-08-01T20:21:15.321Z,20.99
2022-08-01T20:23:43.064Z,20.97
2022-08-01T20:26:10.841Z,20.94
2022-08-01T20:28:40.096Z,20.92
2022-08-01T20:31:07.774Z,20.88
2022-08-01T20:33:35.523Z,20.84
2022-08-01T20:36:03.162Z,20.79
2022-08-01T20:38:32.848Z,20.73
2022-08-01T20:41:02.424Z,20.65
2022-08-01T20:43:30.215Z,20.58
2022-08-01T20:45:57.936Z,20.53
2022-08-01T20:48:25.952Z,20.48
2022-08-01T20:51:10.983Z,20.42
2022-08-01T20:53:41.092Z,20.36
2022-08-01T20:56:09.328Z,20.31
2022-08-01T20:58:37.069Z,20.25
2022-08-01T21:01:04.807Z,20.20
2022-08-01T21:03:37.428Z,20.13
2022-08-01T21:06:05.511Z,20.05
2022-08-01T21:08:33.208Z,19.97
2022-08-01T21:11:00.943Z,19.91
2022-08-01T21:13:28.625Z,19.85
2022-08-01T21:16:22.162Z,19.78
2022-08-01T21:19:03.694Z,19.69
2022-08-01T21:21:33.049Z,19.59
2022-08-01T21:24:01.103Z,19.50
2022-08-01T21:26:28.920Z,19.41
2022-08-01T21:29:00.584Z,19.35
2022-08-01T21:31:40.271Z,19.27
2022-08-01T21:34:09.108Z,19.20
2022-08-01T21:36:36.964Z,19.12
2022-08-01T21:39:04.787Z,19.04
2022-08-01T21:42:03.430Z,18.97
2022-08-01T21:44:20.362Z,18.85
2022-08-01T21:46:48.729Z,18.74
2022-08-01T21:49:16.737Z,18.64
2022-08-01T21:51:45.819Z,18.55
2022-08-01T21:54:19.958Z,18.48
2022-08-01T21:56:48.476Z,18.41
2022-08-01T21:59:16.224Z,18.36
2022-08-01T22:01:49.996Z,18.31
2022-08-01T22:04:20.453Z,18.28
2022-08-01T22:06:48.435Z,18.25
2022-08-01T22:09:16.151Z,18.22
2022-08-01T22:12:00.975Z,18.19
2022-08-01T22:14:36.816Z,18.15
2022-08-01T22:17:04.541Z,18.12
2022-08-01T22:19:45.029Z,18.10
2022-08-01T22:22:44.570Z,18.06
2022-08-01T22:25:01.715Z,18.04
2022-08-01T22:28:07.828Z,18.02
2022-08-01T22:30:17.756Z,17.98
2022-08-01T22:32:45.460Z,17.96
2022-08-01T22:35:33.169Z,17.92
2022-08-01T22:38:01.584Z,17.89
2022-08-01T22:40:29.384Z,17.89
2022-08-01T22:42:59.693Z,17.88
2022-08-01T22:45:27.740Z,17.87
2022-08-01T22:47:55.793Z,17.87
2022-08-01T22:50:36.198Z,17.87
2022-08-01T22:53:04.472Z,17.81
2022-08-01T22:55:59.228Z,17.75
2022-08-01T22:58:21.779Z,17.68
2022-08-01T23:00:49.687Z,17.62
2022-08-01T23:03:17.662Z,17.53
2022-08-01T23:05:52.424Z,17.45
2022-08-01T23:08:20.483Z,17.38
2022-08-01T23:10:48.235Z,17.34
2022-08-01T23:13:15.898Z,17.30
2022-08-01T23:15:43.602Z,17.25
2022-08-01T23:18:20.705Z,17.23
2022-08-01T23:20:48.403Z,17.18
2022-08-01T23:23:16.134Z,17.16
2022-08-01T23:25:44.138Z,17.12
2022-08-01T23:28:11.855Z,17.09
2022-08-01T23:30:39.562Z,17.04
2022-08-01T23:33:07.576Z,16.99
2022-08-01T23:35:38.178Z,16.94
2022-08-01T23:38:06.917Z,16.90
2022-08-01T23:40:34.610Z,16.84
2022-08-01T23:43:02.297Z,16.79
2022-08-01T23:46:02.290Z,16.74
2022-08-01T23:48:17.659Z,16.70
2022-08-01T23:50:45.377Z,16.69
2022-08-01T23:53:13.480Z,16.68
2022-08-01T23:55:43.317Z,16.65
2022-08-01T23:58:12.186Z,16.63
